createdAt,value
2023-08-02T00:00:52.819Z,58.29
2023-08-02T00:01:52.898Z,57.72
2023-08-02T00:02:52.838Z,60.43
2023-08-02T00:04:09.138Z,59.66
2023-08-02T00:04:54.875Z,57.77
2023-08-02T00:05:52.875Z,58.95
2023-08-02T00:06:52.867Z,56.93
2023-08-02T00:07:53.836Z,59.10
2023-08-02T00:08:52.762Z,58.98
2023-08-02T00:09:52.731Z,56.79
2023-08-02T00:10:52.753Z,57.87
2023-08-02T00:11:52.729Z,58.90
2023-08-02T00:12:52.772Z,57.39
2023-08-02T00:13:52.776Z,59.45
2023-08-02T00:14:52.674Z,57.30
2023-08-02T00:15:52.684Z,55.59
2023-08-02T00:16:52.723Z,58.68
2023-08-02T00:17:52.718Z,57.73
2023-08-02T00:18:52.655Z,59.01
2023-08-02T00:19:52.632Z,59.90
2023-08-02T00:20:52.633Z,60.05
2023-08-02T00:21:52.614Z,57.27
2023-08-02T00:22:52.618Z,58.16
2023-08-02T00:23:52.605Z,56.82
2023-08-02T00:24:52.589Z,58.07
2023-08-02T00:25:52.589Z,59.53
2023-08-02T00:26:52.579Z,58.16
2023-08-02T00:27:52.575Z,58.38
2023-08-02T00:28:52.557Z,59.46
2023-08-02T00:29:52.544Z,56.25
2023-08-02T00:30:52.556Z,55.54
2023-08-02T00:31:52.526Z,57.59
2023-08-02T00:32:52.528Z,59.04
2023-08-02T00:33:52.484Z,58.99
2023-08-02T00:34:52.477Z,59.00
2023-08-02T00:35:52.510Z,57.26
2023-08-02T00:36:52.496Z,59.88
2023-08-02T00:37:52.475Z,57.39
2023-08-02T00:38:52.437Z,57.77
2023-08-02T00:39:52.436Z,59.53
2023-08-02T00:40:52.448Z,59.15
2023-08-02T00:41:52.409Z,57.36
2023-08-02T00:42:52.393Z,59.07
2023-08-02T00:43:52.390Z,57.33
2023-08-02T00:44:52.377Z,59.33
2023-08-02T00:45:52.438Z,57.41
2023-08-02T00:46:52.496Z,57.36
2023-08-02T00:47:52.383Z,58.12
2023-08-02T00:48:53.338Z,58.65
2023-08-02T00:49:52.352Z,57.01
2023-08-02T00:50:52.329Z,56.93
2023-08-02T00:51:52.311Z,55.95
2023-08-02T00:52:52.287Z,56.94
2023-08-02T00:53:52.284Z,56.40
2023-08-02T00:54:52.302Z,59.09
2023-08-02T00:55:52.261Z,56.70
2023-08-02T00:56:52.246Z,56.96
2023-08-02T00:57:52.234Z,58.23
2023-08-02T00:58:52.232Z,59.51
2023-08-02T00:59:52.237Z,55.03
2023-08-02T01:00:52.204Z,59.17
2023-08-02T01:01:52.246Z,55.91
2023-08-02T01:02:52.247Z,55.60
2023-08-02T01:03:52.173Z,57.33
2023-08-02T01:04:52.188Z,54.81
2023-08-02T01:05:52.185Z,56.92
2023-08-02T01:06:52.212Z,60.33
2023-08-02T01:07:52.144Z,56.37
2023-08-02T01:08:52.206Z,58.36
2023-08-02T01:09:52.149Z,55.45
2023-08-02T01:10:52.112Z,57.21
2023-08-02T01:11:52.104Z,57.52
2023-08-02T01:12:52.081Z,58.14
2023-08-02T01:13:52.092Z,57.79
2023-08-02T01:14:55.954Z,59.13
2023-08-02T01:15:53.105Z,57.75
2023-08-02T01:16:52.073Z,53.48
2023-08-02T01:17:52.143Z,59.31
2023-08-02T01:18:52.050Z,59.18
2023-08-02T01:19:52.022Z,56.12
2023-08-02T01:20:52.004Z,57.33
2023-08-02T01:21:51.993Z,57.71
2023-08-02T01:22:52.017Z,56.53
2023-08-02T01:23:52.007Z,56.43
2023-08-02T01:24:51.956Z,57.29
2023-08-02T01:25:51.959Z,58.35
2023-08-02T01:26:51.963Z,55.92
2023-08-02T01:27:51.999Z,57.86
2023-08-02T01:28:51.915Z,56.88
2023-08-02T01:29:51.918Z,59.30
2023-08-02T01:30:51.906Z,56.14
2023-08-02T01:31:51.918Z,56.46
2023-08-02T01:32:51.981Z,57.86
2023-08-02T01:33:51.862Z,56.58
2023-08-02T01:34:51.861Z,58.30
2023-08-02T01:35:51.843Z,59.48
2023-08-02T01:36:51.892Z,58.98
2023-08-02T01:37:51.867Z,56.90
2023-08-02T01:38:51.815Z,57.58
2023-08-02T01:39:51.815Z,58.54
2023-08-02T01:40:51.805Z,59.02
2023-08-02T01:41:51.832Z,60.85
2023-08-02T01:42:51.796Z,61.45
2023-08-02T01:43:51.772Z,57.64
2023-08-02T01:44:51.754Z,57.13
2023-08-02T01:45:51.790Z,58.02
2023-08-02T01:46:51.764Z,57.49
2023-08-02T01:47:51.743Z,59.96
2023-08-02T01:48:51.723Z,58.13
2023-08-02T01:49:51.711Z,58.13
2023-08-02T01:50:51.742Z,56.95
2023-08-02T01:51:51.736Z,58.34
2023-08-02T01:52:51.685Z,59.57
2023-08-02T01:53:51.679Z,59.16
2023-08-02T01:54:51.654Z,61.07
2023-08-02T01:55:51.683Z,57.96
2023-08-02T01:56:51.654Z,61.19
2023-08-02T01:57:51.621Z,59.17
2023-08-02T01:58:51.619Z,58.92
2023-08-02T01:59:51.609Z,61.04
2023-08-02T02:00:51.644Z,61.61
2023-08-02T02:01:51.595Z,60.28
2023-08-02T02:02:51.673Z,57.88
2023-08-02T02:03:51.560Z,59.37
2023-08-02T02:04:51.581Z,59.34
2023-08-02T02:05:51.570Z,59.27
2023-08-02T02:06:51.544Z,60.45
2023-08-02T02:07:51.516Z,61.72
2023-08-02T02:08:51.510Z,57.50
2023-08-02T02:09:51.526Z,60.27
2023-08-02T02:10:51.498Z,60.19
2023-08-02T02:11:51.480Z,59.05
2023-08-02T02:12:51.482Z,59.89
2023-08-02T02:13:51.459Z,61.43
2023-08-02T02:14:51.475Z,61.65
2023-08-02T02:15:51.537Z,60.62
2023-08-02T02:16:51.445Z,59.13
2023-08-02T02:17:51.447Z,58.64
2023-08-02T02:18:51.434Z,59.60
2023-08-02T02:19:51.438Z,59.08
2023-08-02T02:20:51.390Z,57.95
2023-08-02T02:21:51.398Z,57.78
2023-08-02T02:22:51.371Z,60.17
2023-08-02T02:23:51.412Z,60.56
2023-08-02T02:24:51.350Z,58.92
2023-08-02T02:25:51.355Z,60.02
2023-08-02T02:26:51.334Z,58.72
2023-08-02T02:27:51.343Z,57.74
2023-08-02T02:28:51.342Z,59.27
2023-08-02T02:29:51.292Z,59.73
2023-08-02T02:30:51.290Z,58.28
2023-08-02T02:31:51.301Z,59.76
2023-08-02T02:32:51.322Z,59.90
2023-08-02T02:33:51.260Z,58.80
2023-08-02T02:34:51.263Z,59.34
2023-08-02T02:35:51.254Z,57.63
2023-08-02T02:36:52.243Z,57.85
2023-08-02T02:37:51.236Z,59.43
2023-08-02T02:38:51.206Z,59.78
2023-08-02T02:39:51.200Z,59.62
2023-08-02T02:40:51.196Z,60.95
2023-08-02T02:41:51.199Z,59.84
2023-08-02T02:42:51.184Z,58.21
2023-08-02T02:43:51.157Z,60.72
2023-08-02T02:44:51.182Z,58.84
2023-08-02T02:45:51.140Z,58.74
2023-08-02T02:46:51.195Z,58.32
2023-08-02T02:47:51.149Z,61.16
2023-08-02T02:48:51.124Z,60.39
2023-08-02T02:49:51.100Z,60.14
2023-08-02T02:50:51.105Z,61.05
2023-08-02T02:51:51.098Z,59.23
2023-08-02T02:52:51.064Z,59.21
2023-08-02T02:53:51.057Z,60.31
2023-08-02T02:54:51.052Z,58.42
2023-08-02T02:55:51.053Z,60.12
2023-08-02T02:56:51.054Z,59.01
2023-08-02T02:57:51.017Z,61.34
2023-08-02T02:58:51.005Z,58.59
2023-08-02T02:59:50.998Z,59.64
2023-08-02T03:00:51.040Z,60.60
2023-08-02T03:01:51.020Z,59.57
2023-08-02T03:02:51.061Z,59.82
2023-08-02T03:03:50.962Z,61.38
2023-08-02T03:04:50.944Z,60.73
2023-08-02T03:05:50.960Z,59.94
2023-08-02T03:06:50.989Z,60.93
2023-08-02T03:07:50.915Z,59.50
2023-08-02T03:08:50.906Z,58.86
2023-08-02T03:09:50.949Z,61.35
2023-08-02T03:10:50.906Z,59.19
2023-08-02T03:11:50.888Z,58.74
2023-08-02T03:12:50.879Z,59.32
2023-08-02T03:13:50.857Z,59.73
2023-08-02T03:14:50.870Z,58.69
2023-08-02T03:15:50.849Z,60.04
2023-08-02T03:16:50.873Z,60.03
2023-08-02T03:17:50.856Z,61.57
2023-08-02T03:18:50.807Z,61.26
2023-08-02T03:19:50.830Z,60.43
2023-08-02T03:20:50.791Z,60.74
2023-08-02T03:21:50.797Z,59.68
2023-08-02T03:22:50.786Z,60.49
2023-08-02T03:23:50.778Z,61.74
2023-08-02T03:24:50.777Z,61.28
2023-08-02T03:25:50.741Z,63.01
2023-08-02T03:26:50.740Z,60.38
2023-08-02T03:27:50.731Z,62.27
2023-08-02T03:28:50.732Z,61.81
2023-08-02T03:29:50.705Z,61.78
2023-08-02T03:30:50.722Z,61.77
2023-08-02T03:31:50.680Z,61.61
2023-08-02T03:32:50.707Z,62.19
2023-08-02T03:33:50.677Z,61.50
2023-08-02T03:34:50.658Z,60.54
2023-08-02T03:35:50.650Z,61.38
2023-08-02T03:36:50.647Z,61.30
2023-08-02T03:37:50.655Z,60.02
2023-08-02T03:38:50.653Z,60.07
2023-08-02T03:39:50.606Z,63.40
2023-08-02T03:40:50.600Z,62.99
2023-08-02T03:41:51.577Z,62.36
2023-08-02T03:42:50.606Z,60.84
2023-08-02T03:43:50.555Z,61.72
2023-08-02T03:44:50.553Z,62.11
2023-08-02T03:45:50.578Z,62.30
2023-08-02T03:46:50.580Z,61.53
2023-08-02T03:47:50.621Z,62.73
2023-08-02T03:48:50.529Z,63.10
2023-08-02T03:49:50.511Z,63.12
2023-08-02T03:50:50.498Z,62.08
2023-08-02T03:51:50.505Z,62.88
2023-08-02T03:52:50.500Z,63.77
2023-08-02T03:53:50.457Z,62.93
2023-08-02T03:54:50.456Z,61.84
2023-08-02T03:55:50.474Z,61.78
2023-08-02T03:56:50.522Z,64.00
2023-08-02T03:57:50.447Z,62.01
2023-08-02T03:58:50.419Z,63.16
2023-08-02T03:59:50.403Z,63.17
2023-08-02T04:00:50.419Z,61.75
2023-08-02T04:01:50.428Z,63.18
2023-08-02T04:02:50.426Z,63.59
2023-08-02T04:03:50.397Z,63.76
2023-08-02T04:04:50.364Z,62.88
2023-08-02T04:05:50.436Z,63.34
2023-08-02T04:06:50.409Z,64.02
2023-08-02T04:07:50.326Z,62.53
2023-08-02T04:08:50.312Z,63.23
2023-08-02T04:09:50.294Z,64.16
2023-08-02T04:10:50.310Z,63.12
2023-08-02T04:11:50.277Z,64.24
2023-08-02T04:12:50.271Z,63.60
2023-08-02T04:13:50.265Z,64.09
2023-08-02T04:14:50.252Z,64.72
2023-08-02T04:15:50.275Z,63.87
2023-08-02T04:16:50.286Z,63.78
2023-08-02T04:17:50.354Z,63.75
2023-08-02T04:18:50.228Z,63.95
2023-08-02T04:19:50.218Z,64.09
2023-08-02T04:20:50.209Z,63.65
2023-08-02T04:21:50.197Z,64.03
2023-08-02T04:22:50.168Z,62.95
2023-08-02T04:23:50.168Z,64.42
2023-08-02T04:24:50.195Z,64.31
2023-08-02T04:25:50.160Z,63.46
2023-08-02T04:26:50.138Z,62.56
2023-08-02T04:27:50.148Z,63.63
2023-08-02T04:28:50.108Z,64.22
2023-08-02T04:29:50.128Z,63.67
2023-08-02T04:30:50.090Z,63.60
2023-08-02T04:31:50.154Z,63.39
2023-08-02T04:32:50.120Z,64.17
2023-08-02T04:33:50.052Z,64.73
2023-08-02T04:34:50.070Z,63.85
2023-08-02T04:35:50.037Z,63.53
2023-08-02T04:36:50.058Z,64.61
2023-08-02T04:37:50.021Z,63.95
2023-08-02T04:38:50.021Z,65.27
2023-08-02T04:39:50.027Z,64.54
2023-08-02T04:40:50.014Z,62.92
2023-08-02T04:41:49.983Z,64.21
2023-08-02T04:42:49.983Z,63.82
2023-08-02T04:43:49.980Z,63.71
2023-08-02T04:44:49.946Z,63.31
2023-08-02T04:45:49.970Z,63.63
2023-08-02T04:46:49.942Z,63.41
2023-08-02T04:47:49.985Z,63.16
2023-08-02T04:48:49.951Z,63.00
2023-08-02T04:49:49.908Z,61.82
2023-08-02T04:50:49.895Z,62.79
2023-08-02T04:51:49.880Z,62.61
2023-08-02T04:52:49.880Z,63.45
2023-08-02T04:53:49.897Z,62.70
2023-08-02T04:54:49.848Z,60.74
2023-08-02T04:55:49.839Z,63.40
2023-08-02T04:56:49.835Z,62.54
2023-08-02T04:57:49.839Z,62.91
2023-08-02T04:58:49.814Z,62.27
2023-08-02T04:59:49.840Z,63.27
2023-08-02T05:00:49.799Z,61.63
2023-08-02T05:01:49.860Z,61.80
2023-08-02T05:02:49.872Z,62.88
2023-08-02T05:03:49.786Z,62.32
2023-08-02T05:04:49.757Z,63.43
2023-08-02T05:05:49.747Z,63.02
2023-08-02T05:06:49.743Z,62.98
2023-08-02T05:07:49.783Z,63.14
2023-08-02T05:08:49.707Z,62.81
2023-08-02T05:09:49.716Z,62.62
2023-08-02T05:10:49.680Z,62.30
2023-08-02T05:11:49.705Z,63.48
2023-08-02T05:12:49.673Z,63.08
2023-08-02T05:13:49.651Z,63.52
2023-08-02T05:14:49.649Z,64.74
2023-08-02T05:16:21.580Z,64.35
2023-08-02T05:16:49.644Z,63.54
2023-08-02T05:17:49.746Z,62.61
2023-08-02T05:18:49.596Z,61.70
2023-08-02T05:19:49.595Z,62.57
2023-08-02T05:20:49.605Z,62.54
2023-08-02T05:21:49.604Z,62.41
2023-08-02T05:22:49.624Z,63.02
2023-08-02T05:23:50.672Z,62.47
2023-08-02T05:24:49.599Z,62.65
2023-08-02T05:25:49.576Z,62.07
2023-08-02T05:26:49.532Z,62.62
2023-08-02T05:27:49.520Z,61.75
2023-08-02T05:28:49.511Z,62.72
2023-08-02T05:29:49.500Z,62.65
2023-08-02T05:30:49.524Z,61.84
2023-08-02T05:31:49.514Z,62.92
2023-08-02T05:32:49.550Z,62.85
2023-08-02T05:33:49.462Z,63.04
2023-08-02T05:34:49.478Z,62.17
2023-08-02T05:35:49.467Z,62.77
2023-08-02T05:36:49.430Z,61.96
2023-08-02T05:37:49.432Z,62.23
2023-08-02T05:38:49.408Z,61.52
2023-08-02T05:39:49.427Z,62.07
2023-08-02T05:40:49.387Z,61.46
2023-08-02T05:41:49.379Z,61.59
2023-08-02T05:42:49.372Z,63.11
2023-08-02T05:43:49.372Z,62.35
2023-08-02T05:44:49.381Z,60.83
2023-08-02T05:45:49.355Z,62.10
2023-08-02T05:46:49.322Z,62.43
2023-08-02T05:47:49.383Z,61.92
2023-08-02T05:48:49.328Z,61.55
2023-08-02T05:49:49.336Z,62.00
2023-08-02T05:50:49.284Z,61.48
2023-08-02T05:51:49.281Z,61.40
2023-08-02T05:52:49.286Z,61.71
2023-08-02T05:53:49.282Z,62.34
2023-08-02T05:54:49.250Z,60.73
2023-08-02T05:55:49.240Z,61.26
2023-08-02T05:56:49.225Z,61.78
2023-08-02T05:57:49.239Z,62.38
2023-08-02T05:58:49.220Z,61.33
2023-08-02T05:59:49.201Z,61.31
2023-08-02T06:00:50.873Z,62.44
2023-08-02T06:01:49.260Z,62.45
2023-08-02T06:02:49.257Z,61.65
2023-08-02T06:03:49.244Z,61.95
2023-08-02T06:04:49.190Z,60.24
2023-08-02T06:05:49.142Z,61.70
2023-08-02T06:06:49.191Z,63.24
2023-08-02T06:07:49.140Z,62.62
2023-08-02T06:08:49.108Z,61.83
2023-08-02T06:09:49.116Z,61.42
2023-08-02T06:10:49.092Z,61.89
2023-08-02T06:11:49.084Z,59.50
2023-08-02T06:12:49.082Z,60.77
2023-08-02T06:13:49.064Z,60.83
2023-08-02T06:14:49.045Z,60.86
2023-08-02T06:15:49.064Z,61.01
2023-08-02T06:16:49.045Z,60.11
2023-08-02T06:17:49.088Z,60.72
2023-08-02T06:18:49.010Z,61.05
2023-08-02T06:19:48.992Z,60.90
2023-08-02T06:20:48.994Z,60.71
2023-08-02T06:21:48.996Z,60.51
2023-08-02T06:22:48.977Z,60.91
2023-08-02T06:23:49.018Z,60.55
2023-08-02T06:24:48.946Z,62.11
2023-08-02T06:25:48.941Z,61.52
2023-08-02T06:26:48.933Z,60.96
2023-08-02T06:27:48.923Z,61.21
2023-08-02T06:28:48.915Z,61.54
2023-08-02T06:29:48.892Z,61.59
2023-08-02T06:30:48.934Z,62.53
2023-08-02T06:31:48.905Z,62.32
2023-08-02T06:32:48.870Z,61.12
2023-08-02T06:33:48.873Z,62.22
2023-08-02T06:34:48.849Z,61.54
2023-08-02T06:35:48.861Z,62.22
2023-08-02T06:36:48.859Z,62.39
2023-08-02T06:37:48.815Z,61.68
2023-08-02T06:38:48.824Z,61.07
2023-08-02T06:39:48.796Z,61.65
2023-08-02T06:40:48.804Z,60.32
2023-08-02T06:41:48.777Z,60.35
2023-08-02T06:42:48.770Z,62.06
2023-08-02T06:43:48.744Z,61.69
2023-08-02T06:44:48.805Z,60.47
2023-08-02T06:45:48.784Z,61.83
2023-08-02T06:46:48.795Z,60.80
2023-08-02T06:47:48.761Z,61.79
2023-08-02T06:48:48.702Z,62.03
2023-08-02T06:49:48.713Z,61.60
2023-08-02T06:50:48.689Z,60.06
2023-08-02T06:51:48.674Z,60.53
2023-08-02T06:52:48.658Z,62.16
2023-08-02T06:53:48.672Z,61.86
2023-08-02T06:54:48.684Z,61.30
2023-08-02T06:55:48.631Z,62.17
2023-08-02T06:56:48.621Z,60.24
2023-08-02T06:57:48.631Z,59.67
2023-08-02T06:58:48.620Z,60.88
2023-08-02T06:59:48.631Z,61.10
2023-08-02T07:00:48.599Z,61.08
2023-08-02T07:01:48.584Z,60.00
2023-08-02T07:02:49.156Z,59.62
2023-08-02T07:03:48.579Z,59.76
2023-08-02T07:04:48.610Z,59.52
2023-08-02T07:05:48.548Z,59.16
2023-08-02T07:06:48.531Z,59.23
2023-08-02T07:07:48.548Z,60.03
2023-08-02T07:08:48.560Z,59.63
2023-08-02T07:09:48.485Z,60.38
2023-08-02T07:10:48.485Z,60.46
2023-08-02T07:11:48.831Z,59.61
2023-08-02T07:12:48.480Z,60.76
2023-08-02T07:13:48.447Z,60.96
2023-08-02T07:14:48.444Z,60.84
2023-08-02T07:15:48.424Z,60.94
2023-08-02T07:16:48.479Z,60.18
2023-08-02T07:17:48.740Z,60.44
2023-08-02T07:18:48.392Z,61.85
2023-08-02T07:19:48.389Z,61.46
2023-08-02T07:20:48.390Z,60.32
2023-08-02T07:21:48.398Z,60.52
2023-08-02T07:22:48.414Z,59.53
2023-08-02T07:23:48.343Z,61.30
2023-08-02T07:24:48.334Z,61.35
2023-08-02T07:25:48.337Z,61.06
2023-08-02T07:26:48.340Z,59.68
2023-08-02T07:27:48.305Z,59.78
2023-08-02T07:28:48.317Z,61.34
2023-08-02T07:29:48.303Z,60.05
2023-08-02T07:30:48.304Z,60.87
2023-08-02T07:31:48.299Z,59.31
2023-08-02T07:32:48.279Z,60.20
2023-08-02T07:33:48.313Z,60.59
2023-08-02T07:34:48.232Z,61.15
2023-08-02T07:35:48.240Z,59.69
2023-08-02T07:36:48.374Z,61.03
2023-08-02T07:37:48.204Z,60.24
2023-08-02T07:38:48.195Z,61.10
2023-08-02T07:39:48.182Z,60.06
2023-08-02T07:40:48.213Z,61.37
2023-08-02T07:41:48.155Z,60.52
2023-08-02T07:42:48.154Z,61.02
2023-08-02T07:43:48.133Z,60.15
2023-08-02T07:44:48.130Z,60.85
2023-08-02T07:45:48.135Z,60.58
2023-08-02T07:46:48.160Z,60.09
2023-08-02T07:47:48.125Z,59.22
2023-08-02T07:48:48.100Z,59.25
2023-08-02T07:49:48.122Z,60.07
2023-08-02T07:50:48.091Z,59.96
2023-08-02T07:51:48.113Z,58.71
2023-08-02T07:52:48.052Z,58.38
2023-08-02T07:53:48.076Z,59.54
2023-08-02T07:54:55.963Z,60.09
2023-08-02T07:55:50.027Z,60.71
2023-08-02T07:56:48.007Z,58.45
2023-08-02T07:57:48.004Z,60.94
2023-08-02T07:58:47.994Z,59.87
2023-08-02T07:59:48.008Z,59.93
2023-08-02T08:00:47.972Z,60.67
2023-08-02T08:01:48.011Z,58.15
2023-08-02T08:02:48.007Z,58.92
2023-08-02T08:03:47.972Z,58.10
2023-08-02T08:04:47.956Z,58.19
2023-08-02T08:05:47.931Z,60.22
2023-08-02T08:06:47.943Z,59.70
2023-08-02T08:07:47.893Z,58.87
2023-08-02T08:08:47.912Z,58.82
2023-08-02T08:09:47.869Z,60.66
2023-08-02T08:10:47.867Z,61.30
2023-08-02T08:11:47.846Z,59.04
2023-08-02T08:12:47.881Z,56.75
2023-08-02T08:13:47.847Z,58.92
2023-08-02T08:14:47.825Z,59.65
2023-08-02T08:15:47.833Z,59.13
2023-08-02T08:16:47.851Z,59.44
2023-08-02T08:17:47.885Z,59.83
2023-08-02T08:18:49.048Z,59.44
2023-08-02T08:19:47.772Z,58.87
2023-08-02T08:20:47.764Z,59.78
2023-08-02T08:21:47.775Z,59.33
2023-08-02T08:22:47.761Z,60.90
2023-08-02T08:23:47.722Z,57.90
2023-08-02T08:24:47.743Z,60.30
2023-08-02T08:25:47.710Z,58.82
2023-08-02T08:26:47.704Z,57.95
2023-08-02T08:27:47.707Z,58.33
2023-08-02T08:28:47.680Z,60.27
2023-08-02T08:29:47.683Z,60.28
2023-08-02T08:30:47.660Z,60.06
2023-08-02T08:31:47.881Z,59.43
2023-08-02T08:32:47.683Z,58.78
2023-08-02T08:33:47.635Z,60.70
2023-08-02T08:34:47.631Z,61.00
2023-08-02T08:35:47.617Z,59.36
2023-08-02T08:36:47.632Z,58.54
2023-08-02T08:37:47.640Z,59.40
2023-08-02T08:38:50.202Z,59.08
2023-08-02T08:39:51.450Z,58.26
2023-08-02T08:40:48.588Z,60.49
2023-08-02T08:41:47.565Z,59.97
2023-08-02T08:42:47.534Z,61.12
2023-08-02T08:43:47.531Z,63.11
2023-08-02T08:44:47.529Z,58.57
2023-08-02T08:45:47.591Z,58.68
2023-08-02T08:46:47.501Z,57.21
2023-08-02T08:47:47.526Z,59.02
2023-08-02T08:48:47.471Z,59.41
2023-08-02T08:49:47.472Z,59.49
2023-08-02T08:50:47.491Z,58.09
2023-08-02T08:51:47.456Z,59.72
2023-08-02T08:52:47.451Z,60.43
2023-08-02T08:53:47.422Z,59.88
2023-08-02T08:54:47.438Z,56.88
2023-08-02T08:55:47.423Z,59.84
2023-08-02T08:56:47.397Z,59.83
2023-08-02T08:57:47.402Z,60.22
2023-08-02T08:58:47.379Z,58.77
2023-08-02T08:59:47.395Z,58.80
2023-08-02T09:00:47.387Z,58.60
2023-08-02T09:01:47.408Z,59.18
2023-08-02T09:02:47.406Z,59.75
2023-08-02T09:03:47.376Z,60.37
2023-08-02T09:04:47.660Z,61.28
2023-08-02T09:05:47.299Z,61.21
2023-08-02T09:06:47.385Z,60.53
2023-08-02T09:07:47.289Z,58.67
2023-08-02T09:08:47.289Z,59.35
2023-08-02T09:09:47.275Z,59.16
2023-08-02T09:10:47.242Z,59.79
2023-08-02T09:11:47.240Z,59.30
2023-08-02T09:12:47.636Z,59.85
2023-08-02T09:13:47.252Z,60.02
2023-08-02T09:14:47.207Z,60.55
2023-08-02T09:15:48.674Z,59.08
2023-08-02T09:16:47.190Z,60.33
2023-08-02T09:17:47.240Z,59.40
2023-08-02T09:18:47.176Z,57.70
2023-08-02T09:19:48.169Z,57.59
2023-08-02T09:20:47.158Z,57.42
2023-08-02T09:21:47.162Z,59.35
2023-08-02T09:22:47.152Z,58.40
2023-08-02T09:23:47.150Z,59.63
2023-08-02T09:24:47.114Z,59.44
2023-08-02T09:25:47.100Z,59.42
2023-08-02T09:26:47.090Z,60.11
2023-08-02T09:27:47.092Z,58.94
2023-08-02T09:28:47.068Z,59.72
2023-08-02T09:29:47.058Z,60.76
2023-08-02T09:30:47.063Z,59.96
2023-08-02T09:31:47.350Z,58.27
2023-08-02T09:32:47.171Z,60.09
2023-08-02T09:33:47.020Z,58.88
2023-08-02T09:34:47.011Z,59.56
2023-08-02T09:35:47.038Z,59.87
2023-08-02T09:36:48.002Z,58.53
2023-08-02T09:37:47.023Z,59.78
2023-08-02T09:38:46.959Z,59.75
2023-08-02T09:39:46.980Z,60.47
2023-08-02T09:41:26.312Z,60.63
2023-08-02T09:41:58.631Z,58.09
2023-08-02T09:42:48.932Z,59.46
2023-08-02T09:43:46.911Z,58.92
2023-08-02T09:44:46.922Z,59.22
2023-08-02T09:45:46.952Z,58.30
2023-08-02T09:46:46.930Z,60.51
2023-08-02T09:47:46.877Z,60.22
2023-08-02T09:48:46.863Z,59.81
2023-08-02T09:49:46.855Z,60.22
2023-08-02T09:50:46.865Z,59.09
2023-08-02T09:51:46.855Z,59.39
2023-08-02T09:52:46.823Z,59.68
2023-08-02T09:53:46.824Z,58.42
2023-08-02T09:54:46.817Z,58.13
2023-08-02T09:55:46.864Z,59.20
2023-08-02T09:56:46.785Z,60.36
2023-08-02T09:57:46.771Z,60.18
2023-08-02T09:58:46.778Z,60.41
2023-08-02T09:59:46.818Z,61.21
2023-08-02T10:00:46.753Z,59.80
2023-08-02T10:01:47.006Z,59.31
2023-08-02T10:02:46.751Z,59.82
2023-08-02T10:03:46.710Z,57.74
2023-08-02T10:04:46.774Z,58.78
2023-08-02T10:05:46.711Z,59.04
2023-08-02T10:06:46.734Z,60.84
2023-08-02T10:07:46.683Z,59.80
2023-08-02T10:08:46.695Z,59.67
2023-08-02T10:09:46.675Z,60.35
2023-08-02T10:10:46.665Z,59.55
2023-08-02T10:11:46.651Z,59.64
2023-08-02T10:12:46.619Z,58.81
2023-08-02T10:13:46.614Z,59.49
2023-08-02T10:14:46.617Z,60.53
2023-08-02T10:15:46.639Z,59.89
2023-08-02T10:16:46.581Z,59.54
2023-08-02T10:17:46.607Z,59.35
2023-08-02T10:18:46.588Z,58.39
2023-08-02T10:19:46.572Z,57.11
2023-08-02T10:20:46.545Z,57.90
2023-08-02T10:21:46.545Z,60.78
2023-08-02T10:22:46.521Z,59.47
2023-08-02T10:23:46.542Z,59.58
2023-08-02T10:24:46.513Z,60.04
2023-08-02T10:25:46.497Z,60.67
2023-08-02T10:26:46.548Z,60.72
2023-08-02T10:27:46.496Z,60.25
2023-08-02T10:28:46.508Z,58.37
2023-08-02T10:29:46.465Z,59.28
2023-08-02T10:30:46.466Z,60.47
2023-08-02T10:31:46.430Z,59.55
2023-08-02T10:32:46.521Z,59.79
2023-08-02T10:33:46.598Z,59.49
2023-08-02T10:34:46.439Z,59.73
2023-08-02T10:35:46.417Z,57.48
2023-08-02T10:36:46.380Z,58.04
2023-08-02T10:37:46.391Z,57.68
2023-08-02T10:38:46.360Z,59.22
2023-08-02T10:39:46.348Z,58.69
2023-08-02T10:40:46.345Z,59.67
2023-08-02T10:41:46.358Z,57.96
2023-08-02T10:42:46.350Z,58.17
2023-08-02T10:43:46.302Z,57.34
2023-08-02T10:44:46.298Z,57.69
2023-08-02T10:45:46.341Z,58.30
2023-08-02T10:46:46.656Z,58.15
2023-08-02T10:47:46.292Z,58.55
2023-08-02T10:48:47.258Z,58.62
2023-08-02T10:49:46.282Z,58.75
2023-08-02T10:50:46.242Z,59.12
2023-08-02T10:51:46.253Z,57.23
2023-08-02T10:52:46.218Z,58.36
2023-08-02T10:53:46.220Z,58.51
2023-08-02T10:54:46.198Z,58.28
2023-08-02T10:55:46.214Z,58.37
2023-08-02T10:56:46.193Z,58.82
2023-08-02T10:57:46.208Z,59.74
2023-08-02T10:58:46.157Z,58.78
2023-08-02T10:59:46.144Z,57.97
2023-08-02T11:00:47.175Z,59.76
2023-08-02T11:01:46.169Z,58.46
2023-08-02T11:02:46.166Z,59.06
2023-08-02T11:03:46.116Z,59.29
2023-08-02T11:04:46.127Z,59.40
2023-08-02T11:05:46.116Z,61.11
2023-08-02T11:06:46.523Z,59.11
2023-08-02T11:07:46.057Z,57.85
2023-08-02T11:08:46.071Z,59.07
2023-08-02T11:09:46.068Z,58.33
2023-08-02T11:10:46.049Z,58.09
2023-08-02T11:11:46.722Z,56.65
2023-08-02T11:12:46.009Z,57.62
2023-08-02T11:13:45.999Z,58.32
2023-08-02T11:14:47.271Z,59.00
2023-08-02T11:15:47.905Z,57.98
2023-08-02T11:17:54.657Z,57.53
2023-08-02T11:18:48.069Z,57.76
2023-08-02T11:20:05.786Z,57.76
2023-08-02T11:20:48.004Z,57.21
2023-08-02T11:21:45.915Z,57.35
2023-08-02T11:22:45.913Z,57.00
2023-08-02T11:24:46.920Z,57.76
2023-08-02T11:25:45.896Z,58.68
2023-08-02T11:28:46.873Z,58.16
2023-08-02T11:29:45.831Z,57.76
2023-08-02T11:30:46.879Z,58.74
2023-08-02T11:31:47.914Z,58.27
2023-08-02T11:32:46.922Z,57.80
2023-08-02T11:33:45.829Z,59.05
2023-08-02T11:34:45.786Z,59.59
2023-08-02T11:35:45.793Z,59.34
2023-08-02T11:36:48.043Z,58.88
2023-08-02T11:37:46.774Z,59.71
2023-08-02T11:38:45.762Z,59.52
2023-08-02T11:39:54.994Z,59.89
2023-08-02T11:40:47.735Z,58.87
2023-08-02T11:41:45.725Z,59.15
2023-08-02T11:42:45.744Z,58.47
2023-08-02T11:43:45.697Z,58.92
2023-08-02T11:44:49.630Z,60.23
2023-08-02T11:45:47.670Z,59.46
2023-08-02T11:46:45.931Z,58.55
2023-08-02T11:47:48.600Z,58.83
2023-08-02T11:48:46.671Z,58.70
2023-08-02T11:49:45.626Z,57.19
2023-08-02T11:50:45.676Z,57.47
2023-08-02T11:51:45.721Z,58.07
2023-08-02T11:52:45.639Z,58.77
2023-08-02T11:53:45.594Z,58.68
2023-08-02T11:54:45.592Z,58.23
2023-08-02T11:55:45.575Z,58.81
2023-08-02T11:56:46.216Z,57.98
2023-08-02T11:57:45.557Z,58.44
2023-08-02T11:58:45.541Z,58.74
2023-08-02T11:59:45.570Z,58.81
2023-08-02T12:00:45.526Z,57.83
2023-08-02T12:01:45.572Z,56.11
2023-08-02T12:02:45.533Z,56.16
2023-08-02T12:03:45.538Z,58.73
2023-08-02T12:04:45.504Z,59.23
2023-08-02T12:05:45.609Z,59.13
2023-08-02T12:06:45.735Z,58.31
2023-08-02T12:07:45.460Z,58.51
2023-08-02T12:08:45.436Z,58.78
2023-08-02T12:09:45.445Z,57.70
2023-08-02T12:10:45.513Z,58.92
2023-08-02T12:11:45.454Z,59.74
2023-08-02T12:12:45.406Z,57.52
2023-08-02T12:13:45.405Z,58.09
2023-08-02T12:14:45.407Z,59.29
2023-08-02T12:15:45.398Z,60.11
2023-08-02T12:16:45.741Z,60.54
2023-08-02T12:17:45.374Z,57.76
2023-08-02T12:18:45.344Z,58.08
2023-08-02T12:19:48.012Z,57.46
2023-08-02T12:20:46.356Z,59.00
2023-08-02T12:21:45.328Z,59.83
2023-08-02T12:22:45.302Z,59.32
2023-08-02T12:23:45.298Z,58.62
2023-08-02T12:24:45.363Z,59.21
2023-08-02T12:25:47.663Z,59.31
2023-08-02T12:26:46.476Z,58.32
2023-08-02T12:27:45.262Z,58.78
2023-08-02T12:28:45.248Z,58.79
2023-08-02T12:29:45.276Z,58.66
2023-08-02T12:30:45.299Z,59.51
2023-08-02T12:31:45.297Z,59.42
2023-08-02T12:32:45.214Z,59.34
2023-08-02T12:33:45.212Z,59.20
2023-08-02T12:34:47.396Z,60.59
2023-08-02T12:35:45.178Z,59.96
2023-08-02T12:36:45.445Z,61.48
2023-08-02T12:37:45.181Z,60.01
2023-08-02T12:38:45.165Z,59.41
2023-08-02T12:39:45.135Z,59.71
2023-08-02T12:40:45.147Z,59.59
2023-08-02T12:41:45.121Z,58.06
2023-08-02T12:42:53.293Z,59.84
2023-08-02T12:43:47.117Z,59.34
2023-08-02T12:44:45.087Z,59.42
2023-08-02T12:45:45.105Z,60.08
2023-08-02T12:46:45.318Z,58.84
2023-08-02T12:47:45.149Z,60.25
2023-08-02T12:48:45.067Z,60.95
2023-08-02T12:49:45.040Z,60.54
2023-08-02T12:50:45.033Z,59.57
2023-08-02T12:51:45.157Z,60.58
2023-08-02T12:52:45.042Z,60.74
2023-08-02T12:53:44.999Z,59.90
2023-08-02T12:54:45.000Z,59.52
2023-08-02T12:55:46.773Z,59.80
2023-08-02T12:56:45.211Z,60.01